Time;durP1;ratioP1;P1;durP2;ratioP2;P2;SDS_P1;SDS_P2;PMS_P1;PMS_P2;Temp;Humidity;BMP_temperature;BMP_pressure;BME280_temperature;BME280_humidity;BME280_pressure;Samples;Min_cycle;Max_cycle;Signal;HPM_P1;HPM_P2
2021/11/22 00:01:40;;;;;;;12.88;4.18;;;26.00;26.40;;;;;;5049783;28;20119;-63
2021/11/22 00:04:07;;;;;;;21.58;3.78;;;25.90;26.50;;;;;;5050231;28;20120;-64
2021/11/22 00:06:33;;;;;;;13.93;3.53;;;25.90;26.40;;;;;;5050895;28;20535;-64
2021/11/22 00:09:00;;;;;;;10.75;2.92;;;25.80;26.50;;;;;;5067068;28;20158;-63
2021/11/22 00:11:26;;;;;;;11.30;3.10;;;25.70;26.70;;;;;;5049683;28;20531;-63
2021/11/22 00:13:53;;;;;;;18.35;2.50;;;25.60;26.90;;;;;;5063994;28;20073;-63
2021/11/22 00:16:19;;;;;;;7.45;1.88;;;25.50;27.10;;;;;;5044661;28;20179;-63
2021/11/22 00:18:45;;;;;;;19.48;2.67;;;25.50;27.20;;;;;;5059205;28;20104;-63
2021/11/22 00:21:12;;;;;;;9.55;2.40;;;25.40;27.40;;;;;;5068077;28;20069;-64
2021/11/22 00:23:38;;;;;;;27.25;2.28;;;25.30;27.30;;;;;;5058374;28;20068;-64
2021/11/22 00:26:05;;;;;;;8.52;2.40;;;25.20;27.40;;;;;;5051565;28;20113;-64
2021/11/22 00:28:31;;;;;;;15.55;2.83;;;25.10;27.60;;;;;;5070152;28;20223;-63
2021/11/22 00:30:57;;;;;;;12.73;3.00;;;25.00;27.80;;;;;;5056207;28;20176;-64
2021/11/22 00:33:24;;;;;;;20.50;3.53;;;24.90;27.60;;;;;;5063700;28;20073;-63
2021/11/22 00:35:50;;;;;;;14.73;5.05;;;24.80;27.60;;;;;;5079772;28;20105;-64
2021/11/22 00:38:17;;;;;;;13.82;4.13;;;24.70;28.10;;;;;;5059022;28;20533;-64
2021/11/22 00:40:44;;;;;;;14.63;5.38;;;24.60;28.10;;;;;;5067995;28;20199;-64
2021/11/22 00:43:11;;;;;;;21.67;6.18;;;24.50;28.00;;;;;;5051913;28;20594;-63
2021/11/22 00:45:38;;;;;;;15.40;5.68;;;24.40;28.10;;;;;;5058059;28;20167;-65
2021/11/22 00:48:05;;;;;;;12.73;3.83;;;24.30;28.30;;;;;;5069426;28;20072;-65
2021/11/22 00:50:34;;;;;;;13.60;4.55;;;24.30;28.60;;;;;;5074933;28;20128;-65
2021/11/22 00:53:02;;;;;;;25.10;4.80;;;24.10;28.90;;;;;;5063579;28;20073;-65
2021/11/22 00:55:28;;;;;;;22.15;3.80;;;24.00;29.30;;;;;;5061766;28;20089;-65
2021/11/22 00:57:55;;;;;;;14.98;4.07;;;23.90;29.50;;;;;;5057860;28;20412;-64
2021/11/22 01:00:22;;;;;;;13.15;4.00;;;23.80;29.60;;;;;;5067003;28;20126;-66
2021/11/22 01:02:49;;;;;;;29.48;5.50;;;23.70;29.90;;;;;;5070527;28;20080;-62
2021/11/22 01:05:15;;;;;;;30.67;5.43;;;23.60;30.00;;;;;;5071468;28;20080;-62
2021/11/22 01:07:42;;;;;;;29.35;4.65;;;23.40;30.20;;;;;;5037027;28;20543;-64
2021/11/22 01:10:10;;;;;;;18.60;4.47;;;23.40;30.50;;;;;;5056419;28;20083;-66
2021/11/22 01:12:37;;;;;;;17.27;3.58;;;23.30;30.60;;;;;;5034901;28;20073;-67
2021/11/22 01:15:08;;;;;;;14.50;3.63;;;23.20;30.40;;;;;;5060841;28;20184;-66
2021/11/22 01:17:35;;;;;;;16.88;3.38;;;23.10;30.90;;;;;;5049139;28;20518;-64
2021/11/22 01:20:04;;;;;;;15.48;3.17;;;22.90;31.20;;;;;;5067531;28;20423;-63
2021/11/22 01:22:32;;;;;;;18.63;3.42;;;22.80;31.30;;;;;;5053090;28;20110;-62
2021/11/22 01:24:59;;;;;;;21.75;3.42;;;22.70;31.50;;;;;;5070298;28;20077;-64
2021/11/22 01:27:25;;;;;;;18.73;3.63;;;22.60;32.00;;;;;;5069815;28;20075;-65
2021/11/22 01:29:51;;;;;;;25.98;4.10;;;22.40;32.10;;;;;;5055059;28;20069;-63
2021/11/22 01:32:18;;;;;;;21.52;3.33;;;22.40;32.60;;;;;;5063300;28;20084;-64
2021/11/22 01:34:44;;;;;;;16.65;4.10;;;22.20;32.70;;;;;;5078898;28;20101;-64
2021/11/22 01:37:11;;;;;;;27.15;5.10;;;22.20;32.90;;;;;;5018431;28;20077;-63
2021/11/22 01:39:37;;;;;;;14.77;4.20;;;22.00;33.10;;;;;;5059139;28;20064;-64
2021/11/22 01:42:04;;;;;;;22.60;5.78;;;22.00;33.30;;;;;;5073289;28;20600;-64
2021/11/22 01:44:30;;;;;;;27.50;5.68;;;21.90;33.30;;;;;;5054784;28;20069;-61
2021/11/22 01:46:57;;;;;;;32.50;6.80;;;21.80;33.30;;;;;;5072233;28;20534;-65
2021/11/22 01:49:23;;;;;;;23.67;7.50;;;21.80;33.40;;;;;;5057753;28;20488;-64
2021/11/22 01:51:50;;;;;;;26.65;8.93;;;21.80;33.00;;;;;;5062306;28;20119;-64
2021/11/22 01:54:16;;;;;;;34.00;8.07;;;21.70;33.30;;;;;;5063669;28;20129;-64
2021/11/22 01:56:47;;;;;;;36.47;8.80;;;21.60;33.40;;;;;;5067725;28;20092;-65
2021/11/22 01:59:15;;;;;;;29.63;9.50;;;21.60;33.80;;;;;;5054361;28;20069;-65
2021/11/22 02:01:44;;;;;;;24.80;9.05;;;21.50;34.00;;;;;;5056523;28;20164;-65
2021/11/22 02:04:11;;;;;;;28.65;8.43;;;21.40;33.90;;;;;;5093422;28;20499;-64
2021/11/22 02:06:38;;;;;;;33.47;8.98;;;21.40;34.10;;;;;;5055916;28;20176;-64
2021/11/22 02:09:05;;;;;;;35.25;9.68;;;21.40;34.70;;;;;;5089073;28;20072;-65
2021/11/22 02:11:32;;;;;;;36.05;9.27;;;21.30;34.70;;;;;;5061494;28;20081;-63
2021/11/22 02:13:58;;;;;;;24.08;8.90;;;21.20;34.50;;;;;;5064305;28;20099;-64
2021/11/22 02:16:25;;;;;;;42.00;9.63;;;21.20;34.40;;;;;;5067466;28;20183;-65
2021/11/22 02:18:51;;;;;;;43.38;10.80;;;21.10;33.80;;;;;;5058095;28;20072;-64
2021/11/22 02:21:18;;;;;;;47.50;12.35;;;21.10;34.80;;;;;;5073632;28;20179;-63
2021/11/22 02:23:45;;;;;;;37.33;11.20;;;21.10;34.60;;;;;;5081926;28;20720;-64
2021/11/22 02:26:12;;;;;;;33.78;11.55;;;21.00;34.50;;;;;;5056604;28;20442;-62
2021/11/22 02:28:38;;;;;;;25.02;11.05;;;20.90;34.70;;;;;;5058834;28;20104;-63
2021/11/22 02:31:05;;;;;;;34.55;11.88;;;20.80;34.40;;;;;;5057168;28;20069;-63
2021/11/22 02:33:32;;;;;;;31.92;10.70;;;20.80;34.90;;;;;;5064157;28;20084;-63
2021/11/22 02:36:01;;;;;;;33.60;10.48;;;20.80;34.30;;;;;;5067151;28;20105;-64
2021/11/22 02:38:37;;;;;;;27.48;9.95;;;20.80;33.80;;;;;;5058165;28;20163;-65
2021/11/22 02:41:05;;;;;;;31.33;8.50;;;20.80;33.70;;;;;;5054786;28;20098;-65
2021/11/22 02:43:35;;;;;;;24.88;7.68;;;20.80;34.30;;;;;;5072632;28;20391;-62
2021/11/22 02:46:02;;;;;;;23.55;6.70;;;20.80;34.50;;;;;;5053893;28;20134;-62
2021/11/22 02:48:28;;;;;;;29.60;7.82;;;20.80;34.10;;;;;;5070589;28;20091;-62
2021/11/22 02:50:55;;;;;;;27.10;6.97;;;20.70;33.50;;;;;;5043177;28;20085;-64
2021/11/22 02:53:22;;;;;;;21.58;5.78;;;20.60;33.70;;;;;;5064861;28;20160;-63
2021/11/22 02:55:49;;;;;;;20.50;6.28;;;20.60;33.80;;;;;;5064714;28;20205;-64
2021/11/22 02:58:15;;;;;;;28.90;6.28;;;20.60;33.80;;;;;;5060343;28;20130;-64
2021/11/22 03:00:42;;;;;;;18.88;6.15;;;20.50;34.10;;;;;;5071285;28;20975;-63
2021/11/22 03:03:08;;;;;;;21.85;5.97;;;20.50;33.50;;;;;;5072244;28;20077;-64
2021/11/22 03:05:35;;;;;;;20.45;5.53;;;20.50;33.40;;;;;;5054235;28;20099;-67
2021/11/22 03:08:02;;;;;;;17.52;5.18;;;20.60;33.90;;;;;;5055093;28;20559;-62
2021/11/22 03:10:29;;;;;;;15.07;4.68;;;20.60;33.60;;;;;;5058352;28;20077;-64
2021/11/22 03:12:57;;;;;;;15.60;4.22;;;20.50;33.60;;;;;;5066298;28;20099;-63
2021/11/22 03:15:24;;;;;;;24.50;5.10;;;20.50;33.60;;;;;;5064994;28;20084;-64
2021/11/22 03:17:51;;;;;;;17.80;4.45;;;20.50;34.40;;;;;;5058694;28;20073;-63
2021/11/22 03:20:20;;;;;;;17.02;3.85;;;20.50;33.90;;;;;;5071303;28;20096;-63
2021/11/22 03:22:48;;;;;;;9.70;3.20;;;20.50;32.10;;;;;;5089976;28;20065;-63
2021/11/22 03:25:16;;;;;;;16.60;3.42;;;20.50;31.30;;;;;;5072943;28;20171;-64
2021/11/22 03:27:43;;;;;;;16.63;3.45;;;20.50;30.90;;;;;;5055518;28;20451;-63
2021/11/22 03:30:12;;;;;;;22.48;3.35;;;20.50;30.60;;;;;;5064692;28;20092;-64
2021/11/22 03:32:39;;;;;;;17.67;2.78;;;20.50;30.20;;;;;;5065501;28;20096;-64
2021/11/22 03:35:06;;;;;;;22.48;3.10;;;20.50;30.40;;;;;;5063894;28;20139;-63
2021/11/22 03:37:33;;;;;;;20.08;3.03;;;20.60;30.00;;;;;;5077315;28;20473;-63
2021/11/22 03:40:00;;;;;;;15.27;2.95;;;20.50;30.30;;;;;;5069534;28;20379;-62
2021/11/22 03:42:36;;;;;;;14.15;2.50;;;20.50;30.30;;;;;;5071341;28;20156;-62
2021/11/22 03:45:04;;;;;;;13.80;2.05;;;20.50;30.40;;;;;;5082688;28;20069;-62
2021/11/22 03:47:31;;;;;;;25.58;3.10;;;20.40;30.90;;;;;;5036132;28;20069;-63
2021/11/22 03:49:57;;;;;;;13.45;2.65;;;20.40;31.20;;;;;;5086453;28;20191;-58
2021/11/22 03:52:23;;;;;;;18.63;3.17;;;20.40;31.80;;;;;;5078207;28;20069;-63
2021/11/22 03:54:50;;;;;;;24.70;3.08;;;20.30;31.80;;;;;;5080454;28;20159;-62
2021/11/22 03:57:16;;;;;;;;;;;20.20;31.50;;;;;;5083966;28;20076;-63
2021/11/22 03:59:42;;;;;;;15.63;2.95;;;20.10;31.60;;;;;;5056514;28;19956;-62
2021/11/22 04:02:08;;;;;;;41.33;5.60;;;20.10;32.00;;;;;;5088478;28;20076;-64
2021/11/22 04:04:35;;;;;;;35.60;7.35;;;20.10;32.50;;;;;;5053062;28;20080;-64
2021/11/22 04:07:01;;;;;;;;;;;20.00;32.70;;;;;;5070738;28;20129;-66
2021/11/22 04:09:28;;;;;;;45.33;7.82;;;20.00;32.90;;;;;;5057855;28;19953;-65
2021/11/22 04:11:54;;;;;;;30.25;7.03;;;20.00;33.50;;;;;;5065175;28;20080;-63
2021/11/22 04:14:20;;;;;;;;;;;20.00;32.60;;;;;;5081587;28;20152;-63
2021/11/22 04:16:48;;;;;;;31.15;8.60;;;20.00;32.40;;;;;;5058685;28;20102;-64
2021/11/22 04:19:14;;;;;;;42.95;11.88;;;19.90;32.50;;;;;;5068838;28;20100;-64
2021/11/22 04:21:40;;;;;;;40.17;14.10;;;19.90;32.30;;;;;;5051117;28;20084;-64
2021/11/22 04:24:07;;;;;;;37.92;14.15;;;19.90;32.10;;;;;;5069293;28;20133;-65
2021/11/22 04:26:33;;;;;;;54.30;15.07;;;19.90;32.40;;;;;;5051356;28;20099;-64
2021/11/22 04:29:00;;;;;;;36.78;13.80;;;19.80;32.20;;;;;;5064475;28;20084;-66
2021/11/22 04:31:27;;;;;;;43.33;12.65;;;19.80;32.70;;;;;;5063440;28;20094;-65
2021/11/22 04:33:53;;;;;;;40.63;12.02;;;19.80;32.00;;;;;;5063185;28;20093;-63
2021/11/22 04:36:20;;;;;;;34.95;11.63;;;19.70;32.00;;;;;;5056801;28;20550;-64
2021/11/22 04:38:46;;;;;;;50.13;12.30;;;19.70;31.70;;;;;;5061912;28;20163;-64
2021/11/22 04:41:13;;;;;;;37.72;11.65;;;19.70;31.80;;;;;;5071355;28;20072;-64
2021/11/22 04:43:39;;;;;;;37.42;10.95;;;19.60;32.20;;;;;;5071245;28;20122;-63
2021/11/22 04:46:05;;;;;;;;;;;19.60;32.30;;;;;;5070482;28;20458;-63
2021/11/22 04:48:32;;;;;;;39.50;10.45;;;19.60;32.20;;;;;;5060268;28;19957;-64
2021/11/22 04:50:58;;;;;;;36.28;9.90;;;19.50;32.10;;;;;;5064325;28;20654;-65
2021/11/22 04:53:25;;;;;;;31.33;9.10;;;19.50;32.60;;;;;;5063852;28;20077;-66
2021/11/22 04:55:51;;;;;;;29.65;9.70;;;19.40;33.10;;;;;;5018036;28;20097;-64
2021/11/22 04:58:18;;;;;;;43.97;9.05;;;19.40;32.60;;;;;;5072619;28;20073;-65
2021/11/22 05:00:44;;;;;;;32.55;9.10;;;19.40;32.70;;;;;;5072356;28;20073;-66
2021/11/22 05:03:11;;;;;;;40.25;9.70;;;19.30;32.90;;;;;;5036638;28;20099;-64
2021/11/22 05:05:38;;;;;;;29.85;8.27;;;19.30;32.90;;;;;;5086588;28;20156;-63
2021/11/22 05:08:08;;;;;;;39.30;8.68;;;19.30;33.10;;;;;;5076545;28;20524;-65
2021/11/22 05:10:37;;;;;;;32.97;8.27;;;19.20;33.50;;;;;;5080793;28;20125;-65
2021/11/22 05:13:05;;;;;;;35.05;6.88;;;19.20;33.90;;;;;;5066138;28;20469;-65
2021/11/22 05:15:34;;;;;;;30.13;7.47;;;19.20;33.70;;;;;;5078587;28;20465;-66
2021/11/22 05:18:00;;;;;;;29.27;7.35;;;19.10;33.40;;;;;;5072757;28;20073;-64
2021/11/22 05:20:28;;;;;;;24.42;6.32;;;19.10;33.20;;;;;;5056584;28;20523;-66
2021/11/22 05:22:56;;;;;;;26.38;6.10;;;19.10;33.10;;;;;;5075682;28;20176;-63
2021/11/22 05:25:23;;;;;;;27.00;7.40;;;19.10;33.40;;;;;;5074271;28;20072;-65
2021/11/22 05:27:49;;;;;;;31.27;7.20;;;19.10;33.40;;;;;;5061008;28;20077;-64
2021/11/22 05:30:17;;;;;;;37.80;7.40;;;19.00;34.60;;;;;;5067549;28;20089;-62
2021/11/22 05:32:44;;;;;;;27.58;7.55;;;19.00;33.30;;;;;;5066284;28;20073;-63
2021/11/22 05:35:10;;;;;;;33.42;7.00;;;18.90;33.40;;;;;;5038845;28;20135;-63
2021/11/22 05:37:37;;;;;;;;;;;18.90;33.50;;;;;;5058817;28;20069;-64
2021/11/22 05:40:06;;;;;;;30.00;7.72;;;18.90;33.50;;;;;;5093449;28;20015;-64
2021/11/22 05:42:32;;;;;;;25.63;7.07;;;18.90;33.90;;;;;;5073674;28;20073;-64
2021/11/22 05:44:59;;;;;;;32.60;7.20;;;18.90;33.80;;;;;;5063925;28;20096;-65
2021/11/22 05:47:26;;;;;;;29.65;7.20;;;18.90;33.90;;;;;;5069586;28;20099;-66
2021/11/22 05:49:55;;;;;;;18.25;5.68;;;18.80;33.90;;;;;;5081083;28;20580;-64
2021/11/22 05:52:23;;;;;;;21.55;6.18;;;18.90;33.90;;;;;;5064358;28;20084;-66
2021/11/22 05:54:52;;;;;;;28.40;6.00;;;18.90;33.90;;;;;;5086741;28;20104;-65
2021/11/22 05:57:19;;;;;;;15.32;5.40;;;18.90;34.00;;;;;;5059307;28;20080;-64
2021/11/22 05:59:46;;;;;;;18.27;4.65;;;18.80;34.00;;;;;;5056545;28;20073;-63
2021/11/22 06:02:12;;;;;;;20.02;5.20;;;18.90;34.20;;;;;;5075078;28;20174;-63
2021/11/22 06:04:39;;;;;;;22.92;5.03;;;18.80;34.60;;;;;;5056780;28;20085;-65
2021/11/22 06:07:05;;;;;;;17.17;4.68;;;18.80;34.50;;;;;;5070146;28;20081;-64
2021/11/22 06:09:31;;;;;;;;;;;18.80;34.70;;;;;;5081588;28;20541;-65
2021/11/22 06:11:58;;;;;;;20.65;5.53;;;18.80;34.90;;;;;;5082032;28;19980;-67
2021/11/22 06:14:24;;;;;;;;;;;18.80;35.30;;;;;;5052801;28;20084;-65
2021/11/22 06:16:50;;;;;;;28.67;8.75;;;18.80;35.80;;;;;;5071633;28;20130;-63
2021/11/22 06:19:16;;;;;;;;;;;18.70;36.00;;;;;;5058326;28;20078;-64
2021/11/22 06:21:43;;;;;;;25.80;9.10;;;18.80;36.30;;;;;;5054672;28;19981;-62
2021/11/22 06:24:09;;;;;;;30.73;8.35;;;18.70;36.60;;;;;;5058128;28;20150;-63
2021/11/22 06:26:35;;;;;;;;;;;18.60;36.70;;;;;;5068778;28;20182;-63
2021/11/22 06:29:02;;;;;;;16.88;6.32;;;18.60;36.90;;;;;;5079871;28;20004;-66
2021/11/22 06:31:28;;;;;;;19.95;5.53;;;18.60;37.00;;;;;;5062110;28;20069;-63
2021/11/22 06:33:54;;;;;;;;;;;18.60;37.10;;;;;;5073644;28;20847;-64
2021/11/22 06:36:21;;;;;;;18.20;4.90;;;18.60;37.30;;;;;;5070682;28;20003;-61
2021/11/22 06:38:47;;;;;;;18.15;5.30;;;18.60;37.80;;;;;;5071374;28;20073;-63
2021/11/22 06:41:14;;;;;;;22.38;5.55;;;18.60;37.20;;;;;;5055426;28;20083;-63
2021/11/22 06:43:40;;;;;;;17.33;5.28;;;18.60;37.20;;;;;;5056191;28;20089;-62
2021/11/22 06:46:06;;;;;;;21.95;5.43;;;18.60;37.30;;;;;;5066246;28;20081;-62
2021/11/22 06:48:33;;;;;;;15.90;5.05;;;18.50;37.20;;;;;;5045845;28;20503;-62
2021/11/22 06:50:59;;;;;;;18.20;4.50;;;18.50;37.30;;;;;;5055013;28;20199;-64
2021/11/22 06:53:25;;;;;;;;;;;18.50;37.30;;;;;;5055136;28;20075;-63
2021/11/22 06:55:53;;;;;;;17.23;4.68;;;18.50;37.40;;;;;;5052939;28;20083;-63
2021/11/22 06:58:19;;;;;;;16.90;5.28;;;18.50;37.40;;;;;;5053086;28;20097;-63
2021/11/22 07:00:46;;;;;;;;;;;18.50;37.50;;;;;;5072721;28;20076;-61
2021/11/22 07:03:12;;;;;;;10.05;4.35;;;18.50;37.50;;;;;;5052604;28;19972;-63
2021/11/22 07:05:39;;;;;;;15.70;4.38;;;18.50;37.50;;;;;;5055213;28;20536;-63
2021/11/22 07:08:07;;;;;;;;;;;18.50;37.50;;;;;;5054334;28;20080;-64
2021/11/22 07:10:35;;;;;;;12.75;3.70;;;18.40;37.50;;;;;;5069408;28;19978;-62
2021/11/22 07:13:01;;;;;;;15.63;3.50;;;18.40;37.60;;;;;;5054310;28;20561;-63
2021/11/22 07:15:34;;;;;;;10.68;3.90;;;18.40;37.00;;;;;;5052452;28;20491;-62
2021/11/22 07:18:02;;;;;;;20.63;3.30;;;18.40;36.80;;;;;;5052657;28;20081;-63
2021/11/22 07:20:28;;;;;;;17.95;3.72;;;18.50;36.10;;;;;;5051624;28;20065;-61
2021/11/22 07:22:55;;;;;;;13.13;3.40;;;18.50;36.10;;;;;;5053274;28;20620;-64
2021/11/22 07:25:21;;;;;;;;;;;18.50;35.70;;;;;;5052883;28;20204;-65
2021/11/22 07:27:48;;;;;;;18.30;3.40;;;18.40;35.70;;;;;;5053458;28;19961;-62
2021/11/22 07:30:19;;;;;;;10.82;3.72;;;18.40;35.70;;;;;;5053267;28;20088;-62
2021/11/22 07:32:46;;;;;;;12.15;3.72;;;18.40;35.60;;;;;;5072636;28;20065;-62
2021/11/22 07:35:14;;;;;;;18.02;5.63;;;18.40;35.60;;;;;;5053652;28;20187;-64
2021/11/22 07:37:41;;;;;;;10.73;3.92;;;18.30;35.50;;;;;;5036259;28;20518;-62
2021/11/22 07:40:07;;;;;;;;;;;18.30;36.20;;;;;;5069649;28;20124;-63
2021/11/22 07:42:33;;;;;;;11.57;3.42;;;18.30;35.70;;;;;;5053468;28;19964;-64
2021/11/22 07:45:00;;;;;;;18.27;3.85;;;18.30;35.60;;;;;;5070062;28;20542;-63
2021/11/22 07:47:26;;;;;;;;;;;18.30;35.80;;;;;;5054375;28;20138;-63
2021/11/22 07:49:52;;;;;;;24.15;4.35;;;18.30;35.90;;;;;;5052421;28;20426;-64
2021/11/22 07:52:19;;;;;;;16.13;4.10;;;18.30;35.90;;;;;;5071344;28;20077;-64
2021/11/22 07:54:45;;;;;;;14.30;3.65;;;18.20;35.90;;;;;;5071878;28;20541;-64
2021/11/22 07:57:12;;;;;;;17.58;3.80;;;18.20;36.00;;;;;;5054499;28;20096;-64
2021/11/22 07:59:38;;;;;;;;;;;18.20;36.40;;;;;;5052890;28;20825;-65
2021/11/22 08:02:04;;;;;;;14.38;3.70;;;18.20;36.60;;;;;;5053335;28;19957;-64
2021/11/22 08:04:31;;;;;;;11.05;3.65;;;18.20;36.90;;;;;;5051741;28;20069;-63
2021/11/22 08:07:01;;;;;;;;;;;18.20;37.10;;;;;;5070900;28;20147;-63
2021/11/22 08:09:36;;;;;;;11.80;3.97;;;18.10;37.40;;;;;;5069549;28;20322;-63
2021/11/22 08:14:29;;;;;;;12.02;3.95;;;18.10;37.50;;;;;;5071688;28;20128;-63
2021/11/22 08:16:56;;;;;;;12.10;4.20;;;18.00;37.40;;;;;;5035088;28;20092;-63
2021/11/22 08:19:23;;;;;;;11.75;3.22;;;18.00;37.10;;;;;;5051704;28;20065;-62
2021/11/22 08:21:49;;;;;;;10.27;3.20;;;18.00;37.00;;;;;;5052550;28;20167;-63
2021/11/22 08:24:15;;;;;;;13.57;3.90;;;18.00;36.90;;;;;;5052517;28;20115;-64
2021/11/22 08:26:42;;;;;;;14.70;3.75;;;17.90;36.60;;;;;;5051353;28;20077;-63
2021/11/22 08:29:08;;;;;;;;;;;18.00;35.90;;;;;;5052968;28;20071;-64
2021/11/22 08:31:34;;;;;;;15.80;3.83;;;17.90;35.30;;;;;;5051019;28;20464;-63
2021/11/22 08:34:01;;;;;;;16.80;3.60;;;17.90;34.90;;;;;;5051313;28;20104;-63
2021/11/22 08:36:27;;;;;;;;;;;17.90;34.60;;;;;;5050782;28;20099;-65
2021/11/22 08:38:53;;;;;;;9.68;2.90;;;17.90;33.70;;;;;;5051654;28;20322;-63
2021/11/22 08:41:19;;;;;;;;;;;17.90;33.30;;;;;;5052141;28;20097;-64
2021/11/22 08:43:46;;;;;;;16.38;2.78;;;17.90;32.60;;;;;;5068166;28;19956;-64
2021/11/22 08:46:13;;;;;;;12.25;3.05;;;17.80;32.40;;;;;;5035629;28;20096;-64
2021/11/22 08:48:39;;;;;;;12.20;3.22;;;17.90;31.90;;;;;;5054715;28;20073;-64
2021/11/22 08:51:08;;;;;;;13.25;2.65;;;17.80;31.60;;;;;;5056408;28;20104;-65
2021/11/22 08:53:35;;;;;;;9.20;2.25;;;17.80;31.60;;;;;;5056232;28;20080;-63
2021/11/22 08:56:02;;;;;;;14.10;2.58;;;17.90;30.80;;;;;;5055418;28;20454;-63
2021/11/22 08:58:28;;;;;;;9.07;2.05;;;17.80;30.60;;;;;;5055957;28;20141;-62
2021/11/22 09:00:55;;;;;;;11.55;2.38;;;17.80;30.60;;;;;;5055874;28;20200;-65
2021/11/22 09:03:21;;;;;;;10.85;1.83;;;17.80;30.20;;;;;;5055301;28;20073;-63
2021/11/22 09:05:47;;;;;;;14.45;2.35;;;17.80;30.30;;;;;;5055768;28;20089;-62
2021/11/22 09:08:16;;;;;;;8.98;1.92;;;17.80;29.60;;;;;;5056079;28;20580;-62
2021/11/22 09:10:42;;;;;;;9.63;1.92;;;17.80;29.50;;;;;;5038822;28;20088;-65
2021/11/22 09:13:09;;;;;;;8.98;2.42;;;17.80;29.50;;;;;;5054941;28;20096;-63
2021/11/22 09:15:37;;;;;;;8.95;2.00;;;17.90;29.40;;;;;;5054840;28;20543;-64
2021/11/22 09:18:04;;;;;;;13.45;2.00;;;17.90;29.10;;;;;;5057879;28;20080;-65
2021/11/22 09:20:30;;;;;;;8.80;1.95;;;17.90;29.30;;;;;;5054485;28;20574;-62
2021/11/22 09:22:58;;;;;;;7.38;2.00;;;18.00;29.40;;;;;;5074255;28;20069;-62
2021/11/22 09:25:25;;;;;;;9.93;2.10;;;18.00;29.80;;;;;;5039020;28;20118;-61
2021/11/22 09:27:51;;;;;;;8.07;1.70;;;18.00;30.00;;;;;;5073316;28;20156;-65
2021/11/22 09:30:18;;;;;;;;;;;18.00;30.00;;;;;;5075115;28;20563;-64
2021/11/22 09:32:45;;;;;;;15.57;2.40;;;18.00;30.30;;;;;;5054968;28;19980;-62
2021/11/22 09:35:11;;;;;;;7.55;1.75;;;18.00;30.60;;;;;;5054350;28;20162;-63
2021/11/22 09:37:38;;;;;;;17.05;2.00;;;17.90;30.80;;;;;;5054857;28;20072;-63
2021/11/22 09:40:08;;;;;;;10.85;1.90;;;18.00;31.20;;;;;;5055644;28;20074;-64
2021/11/22 09:42:34;;;;;;;10.90;2.08;;;18.00;31.70;;;;;;5072352;28;20497;-63
2021/11/22 09:45:04;;;;;;;10.65;2.30;;;17.90;31.80;;;;;;5040250;28;20437;-63
2021/11/22 09:47:31;;;;;;;6.47;1.90;;;17.90;32.20;;;;;;5054425;28;20084;-62
2021/11/22 09:49:58;;;;;;;8.27;2.10;;;17.90;32.40;;;;;;5038055;28;20089;-62
2021/11/22 09:52:25;;;;;;;15.85;1.88;;;17.90;32.90;;;;;;5057225;28;20091;-64
2021/11/22 09:54:52;;;;;;;11.10;2.30;;;17.80;33.10;;;;;;5072123;28;20069;-64
2021/11/22 09:57:19;;;;;;;12.32;2.00;;;17.80;33.60;;;;;;5054634;28;20104;-64
2021/11/22 09:59:46;;;;;;;9.02;1.73;;;17.70;33.70;;;;;;5073719;28;20140;-64
2021/11/22 10:02:12;;;;;;;9.38;1.70;;;17.70;34.00;;;;;;5053870;28;20599;-64
2021/11/22 10:04:41;;;;;;;10.13;1.80;;;17.70;33.80;;;;;;5038087;28;20116;-63
2021/11/22 10:07:10;;;;;;;6.63;1.75;;;17.70;33.70;;;;;;5037590;28;20159;-62
2021/11/22 10:09:46;;;;;;;12.50;2.03;;;17.70;33.70;;;;;;5055041;28;20081;-62
2021/11/22 10:12:23;;;;;;;13.55;2.30;;;17.60;33.50;;;;;;5074274;28;20119;-63
2021/11/22 10:14:57;;;;;;;10.13;2.17;;;17.60;33.40;;;;;;5038654;28;20093;-64
2021/11/22 10:17:34;;;;;;;9.18;3.00;;;17.60;33.30;;;;;;5038523;28;20133;-63
2021/11/22 10:20:10;;;;;;;10.68;2.78;;;17.60;33.40;;;;;;5054170;28;20073;-64
2021/11/22 10:23:12;;;;;;;6.20;2.35;;;17.60;32.90;;;;;;5054146;28;20437;-63
2021/11/22 10:25:41;;;;;;;4.70;2.40;;;17.60;32.50;;;;;;4998482;28;20082;-62
2021/11/22 10:28:10;;;;;;;9.88;2.78;;;17.60;32.60;;;;;;5010456;28;20097;-63
2021/11/22 10:30:53;;;;;;;10.15;3.15;;;17.60;32.40;;;;;;4994684;28;20292;-64
2021/11/22 10:33:23;;;;;;;9.63;2.83;;;17.60;32.30;;;;;;4993410;28;20539;-64
2021/11/22 10:35:56;;;;;;;9.40;3.42;;;17.60;31.70;;;;;;5005805;28;20500;-64
2021/11/22 10:38:26;;;;;;;8.73;2.53;;;17.60;31.10;;;;;;4994074;28;20166;-64
2021/11/22 10:40:57;;;;;;;12.95;2.47;;;17.60;31.00;;;;;;5010500;28;20070;-63
2021/11/22 10:43:32;;;;;;;8.57;3.30;;;17.50;30.80;;;;;;5009940;28;20604;-63
2021/11/22 10:45:59;;;;;;;9.73;3.03;;;17.50;30.80;;;;;;4994398;28;20115;-65
2021/11/22 10:48:28;;;;;;;11.32;2.83;;;17.50;30.90;;;;;;5010373;28;20086;-63
2021/11/22 10:51:03;;;;;;;7.63;2.80;;;17.50;30.90;;;;;;5010403;28;20615;-63
2021/11/22 10:53:34;;;;;;;10.52;2.50;;;17.50;31.10;;;;;;5011086;28;20124;-65
2021/11/22 10:56:03;;;;;;;6.55;2.63;;;17.50;31.50;;;;;;5009881;28;20259;-64
2021/11/22 10:58:45;;;;;;;8.18;2.17;;;17.50;31.50;;;;;;4993784;28;20086;-65
2021/11/22 11:01:48;;;;;;;12.20;2.65;;;17.40;32.00;;;;;;5022148;28;20608;-64
2021/11/22 11:04:16;;;;;;;9.77;2.33;;;17.40;32.40;;;;;;4978099;28;20074;-63
2021/11/22 11:07:06;;;;;;;12.32;2.58;;;17.40;32.60;;;;;;4990417;28;20168;-66
2021/11/22 11:09:49;;;;;;;9.23;2.20;;;17.30;32.40;;;;;;4990034;28;20529;-63
2021/11/22 11:12:18;;;;;;;7.65;2.50;;;17.30;32.70;;;;;;4989519;28;20103;-62
2021/11/22 11:14:50;;;;;;;7.85;2.35;;;17.20;32.80;;;;;;4990111;28;20187;-64
2021/11/22 11:17:32;;;;;;;11.23;2.50;;;17.30;33.00;;;;;;4958094;28;20202;-65
2021/11/22 11:20:09;;;;;;;9.43;2.20;;;17.20;33.20;;;;;;4973794;28;21938;-64
2021/11/22 11:22:36;;;;;;;6.57;2.00;;;17.20;33.40;;;;;;4974706;28;20070;-63
2021/11/22 11:25:05;;;;;;;7.22;2.00;;;17.20;33.40;;;;;;4975119;28;20124;-65
2021/11/22 11:27:34;;;;;;;9.30;2.00;;;17.20;33.60;;;;;;4973990;28;20697;-65
2021/11/22 11:30:02;;;;;;;6.07;2.47;;;17.20;33.70;;;;;;4976389;28;20089;-64
2021/11/22 11:32:30;;;;;;;11.00;2.40;;;17.10;33.90;;;;;;4959094;28;20137;-63
2021/11/22 11:34:58;;;;;;;15.30;2.45;;;17.10;33.50;;;;;;4989981;28;20177;-64
2021/11/22 11:37:36;;;;;;;14.05;2.33;;;17.10;33.10;;;;;;5004684;28;20104;-64
2021/11/22 11:40:09;;;;;;;10.82;1.75;;;17.00;32.50;;;;;;5071905;28;20530;-64
2021/11/22 11:42:53;;;;;;;10.65;1.85;;;17.10;32.30;;;;;;5070684;28;20096;-65
2021/11/22 11:45:26;;;;;;;6.03;1.55;;;17.00;32.40;;;;;;5055704;28;20069;-64
2021/11/22 11:48:14;;;;;;;10.05;1.98;;;17.00;31.90;;;;;;5036784;28;20072;-65
2021/11/22 11:50:44;;;;;;;11.07;1.33;;;17.00;31.80;;;;;;5071564;28;20554;-65
2021/11/22 11:53:13;;;;;;;4.45;1.40;;;17.00;31.90;;;;;;5053132;28;20092;-64
2021/11/22 11:55:41;;;;;;;9.30;1.50;;;17.00;31.60;;;;;;5052869;28;20684;-65
2021/11/22 11:58:15;;;;;;;3.60;1.30;;;17.00;31.40;;;;;;5052898;28;20523;-64
2021/11/22 12:00:57;;;;;;;5.43;1.10;;;17.00;31.00;;;;;;5036724;28;20073;-65
2021/11/22 12:03:26;;;;;;;7.38;1.17;;;17.00;30.90;;;;;;5036005;28;20534;-64
2021/11/22 12:05:55;;;;;;;6.97;1.40;;;17.00;30.60;;;;;;5038747;28;20507;-64
2021/11/22 12:08:31;;;;;;;10.13;1.50;;;17.00;30.40;;;;;;5053687;28;20093;-63
2021/11/22 12:11:04;;;;;;;4.35;1.42;;;17.00;30.10;;;;;;5052571;28;20072;-63
2021/11/22 12:14:06;;;;;;;7.57;1.20;;;16.90;29.70;;;;;;5052658;28;20538;-62
2021/11/22 12:16:42;;;;;;;9.85;1.42;;;16.90;29.60;;;;;;4988913;28;20098;-65
2021/11/22 12:19:36;;;;;;;13.20;1.60;;;16.90;29.60;;;;;;4988546;28;20681;-62
2021/11/22 12:22:16;;;;;;;5.80;1.08;;;16.90;29.50;;;;;;4988578;28;20071;-61
2021/11/22 12:24:44;;;;;;;6.50;1.88;;;16.90;29.10;;;;;;4971877;28;20605;-62
2021/11/22 12:27:32;;;;;;;5.80;1.58;;;16.80;28.90;;;;;;4991027;28;20090;-62
2021/11/22 12:30:03;;;;;;;7.90;1.30;;;16.80;28.70;;;;;;4988030;28;20153;-63
2021/11/22 12:32:32;;;;;;;4.43;1.25;;;16.80;27.90;;;;;;4989029;28;20623;-64
2021/11/22 12:35:01;;;;;;;7.00;1.00;;;16.80;27.60;;;;;;4987997;28;20118;-63
2021/11/22 12:37:34;;;;;;;4.38;1.10;;;16.80;27.60;;;;;;4987969;28;20107;-63
2021/11/22 12:40:12;;;;;;;7.65;1.10;;;16.80;27.40;;;;;;4988134;28;20572;-63
2021/11/22 12:42:50;;;;;;;4.43;1.10;;;16.80;27.30;;;;;;4988270;28;20082;-65
2021/11/22 12:45:18;;;;;;;6.22;1.30;;;16.80;27.00;;;;;;4987317;28;20129;-63
2021/11/22 12:47:45;;;;;;;7.05;1.10;;;16.80;26.80;;;;;;4989123;28;20573;-64
2021/11/22 12:50:21;;;;;;;7.57;1.05;;;16.80;26.90;;;;;;5001694;28;20103;-62
2021/11/22 12:53:17;;;;;;;2.22;0.93;;;16.70;27.50;;;;;;5036392;28;20076;-62
2021/11/22 12:55:46;;;;;;;10.60;1.77;;;16.70;26.70;;;;;;4968926;28;20454;-63